Time;durP1;ratioP1;P1;durP2;ratioP2;P2;SDS_P1;SDS_P2;PMS_P1;PMS_P2;Temp;Humidity;BMP_temperature;BMP_pressure;BME280_temperature;BME280_humidity;BME280_pressure;Samples;Min_cycle;Max_cycle;Signal;HPM_P1;HPM_P2
2022/03/13 00:00:49;;;;;;;11.23;5.47;;;;;;;4.52;41.84;101893.63;10386246;27;20682;-69
2022/03/13 00:05:49;;;;;;;13.10;6.20;;;;;;;4.37;41.26;101889.63;10406775;27;20516;-68
2022/03/13 00:10:50;;;;;;;10.05;5.57;;;;;;;4.30;42.59;101878.16;10424516;27;20130;-68
2022/03/13 00:15:50;;;;;;;11.02;5.90;;;;;;;4.18;42.30;101880.13;10435500;27;20168;-68
2022/03/13 00:20:48;;;;;;;11.20;5.78;;;;;;;4.12;42.33;101883.81;10400387;28;20047;-66
2022/03/13 00:25:44;;;;;;;12.68;5.60;;;;;;;4.12;42.37;101875.69;10401222;28;20131;-66
2022/03/13 00:30:42;;;;;;;11.65;5.75;;;;;;;4.11;44.17;101871.38;10401928;27;20048;-67
2022/03/13 00:35:38;;;;;;;11.40;5.88;;;;;;;4.08;44.29;101874.53;10419444;27;20047;-67
2022/03/13 00:40:35;;;;;;;10.05;5.40;;;;;;;4.08;43.46;101874.53;10401836;27;20071;-68
2022/03/13 00:45:31;;;;;;;11.13;5.95;;;;;;;3.68;43.57;101875.50;10408147;27;20043;-67
2022/03/13 00:50:28;;;;;;;10.93;5.32;;;;;;;3.77;44.81;101884.84;10386331;27;20134;-67
2022/03/13 00:55:25;;;;;;;11.45;5.60;;;;;;;3.77;44.09;101884.84;10394911;28;20040;-67
2022/03/13 01:00:21;;;;;;;13.27;5.97;;;;;;;3.79;45.41;101880.03;10401441;28;20147;-68
2022/03/13 01:05:23;;;;;;;12.07;5.90;;;;;;;3.61;45.53;101874.81;10387538;27;20466;-68
2022/03/13 01:10:23;;;;;;;9.43;4.90;;;;;;;3.65;46.14;101875.97;10401991;28;20550;-67
2022/03/13 01:15:20;;;;;;;11.20;6.03;;;;;;;3.74;43.20;101874.53;10402980;27;20039;-67
2022/03/13 01:20:21;;;;;;;10.57;5.60;;;;;;;3.59;43.92;101873.16;10386190;27;20051;-67
2022/03/13 01:25:18;;;;;;;10.93;5.45;;;;;;;3.73;43.64;101872.88;10401730;27;20044;-67
2022/03/13 01:30:14;;;;;;;10.88;5.93;;;;;;;3.62;47.44;101873.75;10403146;27;20135;-66
2022/03/13 01:35:20;;;;;;;14.23;6.70;;;;;;;3.51;46.98;101873.56;10393983;27;20067;-66
2022/03/13 01:40:23;;;;;;;9.23;5.20;;;;;;;3.40;43.73;101862.81;10387800;27;20047;-71
2022/03/13 01:45:24;;;;;;;11.68;6.43;;;;;;;3.35;43.14;101861.63;10396135;27;20043;-69
2022/03/13 01:50:20;;;;;;;12.52;5.20;;;;;;;3.30;45.23;101860.75;10404026;27;20059;-67
2022/03/13 01:55:17;;;;;;;10.75;5.00;;;;;;;3.33;44.09;101857.53;10394052;28;20055;-67
2022/03/13 02:00:16;;;;;;;12.77;6.45;;;;;;;3.35;45.46;101856.22;10408666;27;20047;-66
2022/03/13 02:05:30;;;;;;;14.07;5.88;;;;;;;3.21;43.24;101848.66;10403377;27;20104;-68
2022/03/13 02:10:27;;;;;;;13.13;6.10;;;;;;;3.12;42.85;101857.13;10396883;27;20051;-68
2022/03/13 02:15:29;;;;;;;11.63;5.60;;;;;;;3.11;45.99;101852.81;10398150;27;20050;-68
2022/03/13 02:20:27;;;;;;;12.17;5.90;;;;;;;3.16;44.19;101858.31;10401825;27;20039;-66
2022/03/13 02:25:23;;;;;;;10.38;5.55;;;;;;;2.94;45.53;101849.19;10395111;27;20051;-66
2022/03/13 02:30:22;;;;;;;10.52;5.68;;;;;;;2.95;47.09;101850.84;10409401;27;20082;-66
2022/03/13 02:35:20;;;;;;;14.23;6.03;;;;;;;2.82;49.50;101851.13;10413962;27;20075;-67
2022/03/13 02:40:23;;;;;;;11.07;5.57;;;;;;;2.67;45.61;101844.34;10413555;27;20051;-67
2022/03/13 02:45:35;;;;;;;10.93;5.93;;;;;;;2.69;47.46;101847.63;10402292;27;20485;-66
2022/03/13 02:50:33;;;;;;;11.40;6.30;;;;;;;2.71;47.83;101845.47;10381319;27;20075;-66
2022/03/13 02:55:29;;;;;;;13.93;6.35;;;;;;;2.64;48.55;101844.78;10387741;27;20111;-66
2022/03/13 03:00:47;;;;;;;16.80;6.30;;;;;;;2.56;46.75;101845.16;10375972;28;20052;-65
2022/03/13 03:05:44;;;;;;;11.07;5.50;;;;;;;2.49;50.17;101857.97;10403052;27;20047;-66
2022/03/13 03:10:41;;;;;;;12.43;6.32;;;;;;;2.36;48.46;101847.41;10392210;28;20335;-65
2022/03/13 03:15:41;;;;;;;11.85;6.38;;;;;;;2.37;50.58;101849.03;10411279;27;20524;-67
2022/03/13 03:20:39;;;;;;;12.52;6.80;;;;;;;2.35;51.29;101851.19;10412353;27;20044;-67
2022/03/13 03:25:36;;;;;;;11.80;5.85;;;;;;;2.20;51.74;101848.91;10388142;27;20104;-67
2022/03/13 03:30:32;;;;;;;12.70;6.40;;;;;;;1.88;51.25;101852.78;10394230;27;20048;-66
2022/03/13 03:35:29;;;;;;;11.82;7.03;;;;;;;2.02;53.33;101849.84;10400192;27;20051;-66
2022/03/13 03:40:29;;;;;;;16.85;8.82;;;;;;;1.99;54.43;101847.63;10377971;27;20509;-66
2022/03/13 03:45:25;;;;;;;15.02;7.15;;;;;;;1.93;51.50;101840.44;10401377;27;20043;-66
2022/03/13 03:50:22;;;;;;;11.70;6.55;;;;;;;1.92;54.23;101849.59;10410169;28;20051;-68
2022/03/13 03:55:19;;;;;;;16.08;7.90;;;;;;;1.87;55.68;101845.72;10392827;27;20086;-66
2022/03/13 04:00:16;;;;;;;18.90;8.55;;;;;;;1.77;54.73;101850.88;10411453;28;20787;-65
2022/03/13 04:05:12;;;;;;;15.13;7.63;;;;;;;1.80;55.02;101861.19;10384904;28;20449;-66
2022/03/13 04:10:10;;;;;;;14.88;6.57;;;;;;;1.51;57.33;101867.41;10392791;28;20618;-66
2022/03/13 04:15:07;;;;;;;14.63;6.85;;;;;;;1.58;59.44;101873.53;10384857;28;20263;-66
2022/03/13 04:20:06;;;;;;;13.68;6.93;;;;;;;1.54;64.00;101870.50;10425795;27;20043;-65
2022/03/13 04:25:03;;;;;;;15.88;7.78;;;;;;;1.42;63.93;101858.84;10379288;27;20082;-66
2022/03/13 04:29:59;;;;;;;17.58;8.35;;;;;;;1.41;63.26;101847.22;10391309;28;20538;-66
2022/03/13 04:34:56;;;;;;;14.95;6.93;;;;;;;1.41;61.57;101854.50;10400497;28;20059;-65
2022/03/13 04:39:52;;;;;;;12.93;6.93;;;;;;;1.34;59.73;101868.06;10381121;28;20047;-65
2022/03/13 04:44:49;;;;;;;16.05;8.05;;;;;;;1.31;64.42;101862.31;10401986;27;20078;-66
2022/03/13 04:49:45;;;;;;;13.20;7.15;;;;;;;1.27;65.36;101861.94;10435507;27;20097;-65
2022/03/13 04:54:43;;;;;;;17.27;7.40;;;;;;;1.18;63.74;101860.59;10395725;27;20048;-64
2022/03/13 04:59:39;;;;;;;15.40;8.05;;;;;;;1.12;69.19;101866.91;10404907;27;20052;-65
2022/03/13 05:04:36;;;;;;;13.25;6.95;;;;;;;1.02;65.94;101860.19;10390433;27;20561;-65
2022/03/13 05:09:33;;;;;;;15.25;7.50;;;;;;;0.99;65.38;101860.63;10398387;28;20086;-64
2022/03/13 05:14:29;;;;;;;14.88;7.40;;;;;;;0.98;72.04;101864.38;10386932;28;20039;-65
2022/03/13 05:19:26;;;;;;;13.52;6.75;;;;;;;0.80;64.48;101859.81;10388306;28;20071;-69
2022/03/13 05:24:22;;;;;;;17.55;7.68;;;;;;;0.87;67.46;101867.81;10376914;28;20097;-68
2022/03/13 05:29:19;;;;;;;14.57;7.20;;;;;;;0.87;66.02;101867.81;10406857;27;20640;-68
2022/03/13 05:34:15;;;;;;;15.75;7.15;;;;;;;0.79;64.56;101865.41;10405592;27;20447;-69
2022/03/13 05:39:12;;;;;;;15.45;7.57;;;;;;;0.85;63.71;101856.44;10398251;27;20460;-67
2022/03/13 05:44:09;;;;;;;14.18;7.95;;;;;;;0.82;62.57;101860.41;10389807;28;20074;-69
2022/03/13 05:49:08;;;;;;;16.40;7.30;;;;;;;0.83;62.00;101872.00;10405987;27;20120;-69
2022/03/13 05:54:04;;;;;;;15.35;8.25;;;;;;;0.79;63.36;101870.78;10396165;27;20554;-70
2022/03/13 05:59:02;;;;;;;15.27;7.25;;;;;;;0.83;62.01;101874.69;10405587;27;20146;-69
2022/03/13 06:03:59;;;;;;;20.13;8.35;;;;;;;0.65;61.03;101874.69;10398177;27;20748;-69
2022/03/13 06:08:57;;;;;;;15.98;7.15;;;;;;;0.75;62.37;101872.31;10401672;27;20040;-69
2022/03/13 06:13:53;;;;;;;13.75;6.95;;;;;;;0.79;59.85;101873.50;10381427;27;20044;-70
2022/03/13 06:18:50;;;;;;;12.15;7.10;;;;;;;0.75;59.25;101875.81;10408023;27;20039;-70
2022/03/13 06:23:46;;;;;;;15.30;7.10;;;;;;;0.72;62.52;101878.13;10387583;27;20068;-66
2022/03/13 06:28:42;;;;;;;14.73;6.78;;;;;;;0.80;61.60;101888.63;10410839;27;20168;-66
2022/03/13 06:33:39;;;;;;;15.75;7.28;;;;;;;0.89;61.37;101887.28;10394592;27;20078;-68
2022/03/13 06:38:35;;;;;;;14.43;6.75;;;;;;;0.82;59.40;101892.72;10404732;27;20039;-70
2022/03/13 06:43:34;;;;;;;15.02;7.53;;;;;;;0.92;61.12;101880.59;10394529;28;20089;-70
2022/03/13 06:48:31;;;;;;;14.52;7.15;;;;;;;0.81;58.81;101891.09;10398954;27;20082;-70
2022/03/13 06:53:28;;;;;;;14.02;7.20;;;;;;;1.11;58.11;101894.88;10393940;27;20091;-66
2022/03/13 06:58:25;;;;;;;12.27;7.25;;;;;;;1.10;56.98;101883.28;10370136;27;20040;-67
2022/03/13 07:03:21;;;;;;;15.35;7.55;;;;;;;1.25;55.54;101880.19;10362166;27;20130;-72
2022/03/13 07:08:18;;;;;;;10.82;5.80;;;;;;;1.42;52.93;101881.22;10360929;27;20085;-72
2022/03/13 07:13:16;;;;;;;13.13;6.53;;;;;;;1.51;53.03;101888.97;10360024;27;20270;-72
2022/03/13 07:18:12;;;;;;;13.98;6.38;;;;;;;1.56;52.51;101898.03;10363529;27;20134;-71
2022/03/13 07:23:09;;;;;;;14.13;6.82;;;;;;;1.71;52.71;101900.31;10360143;27;20084;-71
2022/03/13 07:28:06;;;;;;;17.38;6.55;;;;;;;1.83;49.84;101887.72;10362214;27;20112;-71
2022/03/13 07:33:03;;;;;;;13.13;7.20;;;;;;;1.92;48.75;101890.06;10359376;28;20108;-71
2022/03/13 07:37:59;;;;;;;15.38;6.32;;;;;;;2.02;48.25;101879.50;10368953;27;20048;-64
2022/03/13 07:42:57;;;;;;;11.48;6.28;;;;;;;2.00;48.28;101877.06;10365256;27;20040;-64
2022/03/13 07:47:57;;;;;;;13.93;6.18;;;;;;;2.22;45.76;101880.00;10368671;28;20493;-64
2022/03/13 07:52:54;;;;;;;10.98;6.05;;;;;;;2.30;45.75;101887.78;10345858;28;20075;-66
2022/03/13 07:57:51;;;;;;;12.70;6.18;;;;;;;2.46;44.58;101874.63;10355591;27;20059;-63
2022/03/13 08:02:48;;;;;;;12.20;6.40;;;;;;;2.56;43.67;101880.28;10358089;28;20036;-62
2022/03/13 08:07:45;;;;;;;12.38;5.93;;;;;;;2.71;42.75;101882.47;10363100;27;20066;-64
2022/03/13 08:12:42;;;;;;;11.77;6.28;;;;;;;2.87;42.86;101886.34;10351151;28;20044;-65
2022/03/13 08:17:38;;;;;;;11.80;6.55;;;;;;;2.98;42.21;101877.38;10355092;27;20283;-68
2022/03/13 08:22:35;;;;;;;13.35;5.68;;;;;;;3.05;41.72;101875.38;10347846;27;20078;-66
2022/03/13 08:27:33;;;;;;;13.25;6.28;;;;;;;3.27;41.90;101869.31;10359612;27;20074;-67
2022/03/13 08:32:29;;;;;;;12.25;6.35;;;;;;;3.38;41.59;101868.44;10360798;27;20047;-67
2022/03/13 08:37:26;;;;;;;12.27;5.55;;;;;;;3.53;40.78;101857.94;10365157;27;20047;-67
2022/03/13 08:42:22;;;;;;;18.02;6.32;;;;;;;3.57;40.98;101859.09;10408843;27;20424;-68
2022/03/13 08:47:19;;;;;;;17.13;6.75;;;;;;;3.71;41.95;101853.34;10394354;27;20048;-67
2022/03/13 08:52:16;;;;;;;12.45;5.68;;;;;;;3.85;40.50;101854.66;10397337;27;20127;-68
2022/03/13 08:57:13;;;;;;;12.27;6.18;;;;;;;4.06;41.17;101863.13;10404758;27;20047;-67
2022/03/13 09:02:09;;;;;;;12.43;6.07;;;;;;;4.35;40.87;101853.84;10389814;28;20068;-67
2022/03/13 09:07:07;;;;;;;14.23;6.15;;;;;;;4.68;39.86;101863.00;10407433;27;20043;-67
2022/03/13 09:12:06;;;;;;;10.90;5.72;;;;;;;4.90;38.39;101859.47;10386561;28;20075;-67
2022/03/13 09:17:02;;;;;;;12.07;6.20;;;;;;;5.08;37.73;101856.44;10407932;27;20121;-67
2022/03/13 09:21:59;;;;;;;13.38;6.57;;;;;;;5.36;39.55;101852.72;10390633;27;20086;-67
2022/03/13 09:26:55;;;;;;;13.55;6.57;;;;;;;5.56;38.70;101856.72;10406004;27;20112;-68
2022/03/13 09:31:52;;;;;;;12.80;6.55;;;;;;;5.62;37.24;101845.66;10394406;27;20055;-67
2022/03/13 09:36:49;;;;;;;11.75;6.20;;;;;;;5.87;37.21;101836.09;10396403;27;20044;-67
2022/03/13 09:41:45;;;;;;;10.15;5.90;;;;;;;6.20;36.44;101828.78;10389188;28;20422;-67
2022/03/13 09:46:42;;;;;;;11.50;6.15;;;;;;;6.40;35.52;101834.31;10390718;27;20130;-68
2022/03/13 09:51:39;;;;;;;10.48;5.90;;;;;;;6.59;35.81;101826.59;10394144;27;20049;-68
2022/03/13 09:56:38;;;;;;;13.18;6.78;;;;;;;6.63;34.32;101826.84;10407279;27;20123;-68
2022/03/13 10:01:35;;;;;;;10.27;5.72;;;;;;;6.79;33.65;101825.84;10394479;28;20935;-67
2022/03/13 10:06:52;;;;;;;11.35;6.30;;;;;;;7.15;33.50;101821.38;10397343;27;20524;-68
2022/03/13 10:12:02;;;;;;;11.15;6.20;;;;;;;7.51;32.88;101826.06;10393927;27;20039;-68
2022/03/13 10:16:58;;;;;;;12.05;6.40;;;;;;;7.85;32.63;101825.56;10387635;28;20543;-68
2022/03/13 10:22:08;;;;;;;9.35;5.68;;;;;;;8.13;32.06;101816.81;10378097;28;20047;-67
2022/03/13 10:27:16;;;;;;;11.10;6.22;;;;;;;8.53;31.32;101823.28;10412479;27;20135;-68
2022/03/13 10:32:13;;;;;;;11.25;6.18;;;;;;;8.84;30.12;101825.91;10397255;27;20567;-68
2022/03/13 10:37:09;;;;;;;11.77;6.15;;;;;;;9.32;29.80;101830.88;10395041;27;20109;-68
2022/03/13 10:42:07;;;;;;;11.23;6.35;;;;;;;9.55;30.72;101829.38;10381880;28;20573;-68
2022/03/13 10:47:08;;;;;;;13.38;6.53;;;;;;;9.74;29.35;101822.13;10367512;27;21668;-68
2022/03/13 10:52:16;;;;;;;9.68;6.18;;;;;;;10.06;29.36;101839.91;10392843;27;20534;-68
2022/03/13 10:57:13;;;;;;;12.32;6.15;;;;;;;10.44;29.48;101823.69;10396361;27;20122;-68
2022/03/13 11:02:14;;;;;;;11.70;5.95;;;;;;;10.40;28.47;101818.00;10386306;27;20077;-68
2022/03/13 11:07:11;;;;;;;14.52;6.20;;;;;;;10.82;30.73;101807.41;10385226;27;20131;-68
2022/03/13 11:12:15;;;;;;;11.90;5.85;;;;;;;10.95;30.33;101801.19;10389322;27;20071;-68
2022/03/13 11:17:14;;;;;;;11.07;6.03;;;;;;;11.23;28.93;101795.91;10407610;27;20543;-67
2022/03/13 11:22:11;;;;;;;12.15;6.00;;;;;;;11.18;28.87;101804.19;10391104;28;20509;-68
2022/03/13 11:27:10;;;;;;;12.30;6.90;;;;;;;10.81;30.31;101797.56;10403152;27;20101;-68
2022/03/13 11:32:31;;;;;;;9.77;6.40;;;;;;;10.77;29.30;101777.38;10389823;28;20043;-68
2022/03/13 11:37:31;;;;;;;13.50;5.90;;;;;;;10.93;29.79;101767.84;10405295;27;20137;-68
2022/03/13 11:42:44;;;;;;;11.80;6.35;;;;;;;11.16;28.37;101764.25;10394238;27;21721;-68
2022/03/13 11:47:41;;;;;;;;;;;;;;;11.46;29.25;101761.31;10396861;27;20078;-68
2022/03/13 11:52:37;;;;;;;13.30;7.03;;;;;;;11.87;28.21;101768.88;10407380;27;19924;-68
2022/03/13 11:57:42;;;;;;;8.73;5.70;;;;;;;11.91;27.92;101768.00;10401414;28;20119;-68
2022/03/13 12:02:42;;;;;;;8.65;5.25;;;;;;;12.25;27.15;101761.34;10396345;27;20506;-68
2022/03/13 12:08:12;;;;;;;9.00;5.28;;;;;;;12.63;27.35;101750.19;10377842;27;20207;-68
2022/03/13 12:13:18;;;;;;;10.18;6.05;;;;;;;13.28;26.90;101737.25;10384978;28;20412;-68
2022/03/13 12:18:29;;;;;;;14.00;6.63;;;;;;;13.79;26.57;101738.72;10387408;27;20043;-68
2022/03/13 12:23:31;;;;;;;10.27;5.78;;;;;;;14.39;25.02;101729.94;10391948;27;20039;-68
2022/03/13 12:28:32;;;;;;;11.77;6.35;;;;;;;14.91;23.63;101730.03;10412072;27;20120;-68
2022/03/13 12:33:33;;;;;;;11.73;6.32;;;;;;;15.68;24.44;101711.03;10388602;28;20043;-68
2022/03/13 12:38:31;;;;;;;10.38;6.18;;;;;;;16.35;22.87;101715.00;10387481;27;20109;-68
2022/03/13 12:43:53;;;;;;;10.15;5.53;;;;;;;16.65;21.65;101720.53;10386902;27;20079;-68
2022/03/13 12:48:59;;;;;;;10.40;6.10;;;;;;;17.31;21.38;101711.56;10391868;27;20624;-68
2022/03/13 12:53:55;;;;;;;10.00;5.22;;;;;;;17.91;19.41;101708.53;10389316;27;20043;-68
2022/03/13 12:58:52;;;;;;;9.63;5.75;;;;;;;18.68;20.52;101703.09;10424645;28;20555;-68
2022/03/13 13:03:49;;;;;;;8.88;5.28;;;;;;;19.02;19.32;101695.41;10400651;27;20040;-68
2022/03/13 13:08:46;;;;;;;7.70;4.90;;;;;;;19.36;19.29;101702.34;10397405;28;20105;-68
2022/03/13 13:13:55;;;;;;;9.27;5.45;;;;;;;18.77;19.24;101706.56;10397683;27;20035;-68
2022/03/13 13:18:51;;;;;;;13.43;7.05;;;;;;;20.17;18.96;101685.41;10409957;27;20047;-68
2022/03/13 13:23:48;;;;;;;10.07;6.13;;;;;;;20.64;17.10;101690.09;10397630;27;20067;-68
2022/03/13 13:28:59;;;;;;;11.18;5.95;;;;;;;20.61;18.28;101685.25;10411558;27;20128;-68
2022/03/13 13:33:57;;;;;;;11.20;6.55;;;;;;;20.87;17.85;101681.06;10391355;27;20114;-68
2022/03/13 13:39:05;;;;;;;10.88;5.40;;;;;;;20.47;16.96;101673.78;10394368;27;20307;-68
2022/03/13 13:44:03;;;;;;;10.88;6.40;;;;;;;20.97;17.49;101683.22;10388395;28;20088;-69
2022/03/13 13:49:01;;;;;;;11.38;5.85;;;;;;;20.47;17.05;101684.88;10395160;28;20067;-68
2022/03/13 13:54:20;;;;;;;9.73;5.45;;;;;;;20.47;17.87;101679.34;10395767;27;20066;-68
2022/03/13 13:59:40;;;;;;;8.60;5.90;;;;;;;20.82;16.76;101679.38;10404464;27;20388;-68
2022/03/13 14:04:39;;;;;;;10.40;5.40;;;;;;;20.54;17.53;101680.31;10396343;27;20528;-68
2022/03/13 14:09:37;;;;;;;9.93;5.55;;;;;;;20.80;16.85;101685.28;10398643;27;20145;-68
2022/03/13 14:14:34;;;;;;;7.70;4.82;;;;;;;20.83;17.23;101683.75;10379839;27;20051;-68
2022/03/13 14:19:34;;;;;;;9.35;5.38;;;;;;;20.74;18.29;101683.16;10391708;27;20051;-66
2022/03/13 14:24:33;;;;;;;10.90;5.07;;;;;;;21.08;17.96;101683.47;10385038;28;20485;-68
2022/03/13 14:29:29;;;;;;;8.35;5.28;;;;;;;21.23;17.61;101688.94;10426502;27;20047;-68
2022/03/13 14:34:28;;;;;;;8.50;5.80;;;;;;;19.62;17.22;101685.19;10393900;27;20141;-68
2022/03/13 14:39:25;;;;;;;7.88;4.85;;;;;;;20.51;17.54;101680.22;10400147;27;20051;-68
2022/03/13 14:44:23;;;;;;;8.38;4.72;;;;;;;19.83;16.65;101679.41;10378644;27;20471;-68
2022/03/13 14:49:20;;;;;;;8.13;5.28;;;;;;;19.93;17.42;101683.63;10396187;27;20047;-68
2022/03/13 14:54:16;;;;;;;7.90;5.05;;;;;;;19.62;18.66;101676.06;10398151;27;20469;-68
2022/03/13 14:59:13;;;;;;;10.68;5.40;;;;;;;19.51;17.89;101690.44;10405177;27;20047;-68
2022/03/13 15:04:09;;;;;;;10.13;5.15;;;;;;;19.58;18.50;101691.81;10391130;27;20051;-68
2022/03/13 15:09:20;;;;;;;8.52;5.00;;;;;;;20.13;17.75;101698.41;10380992;28;20048;-68
2022/03/13 15:14:17;;;;;;;10.23;5.22;;;;;;;19.77;17.96;101691.94;10396790;27;20457;-68
2022/03/13 15:19:15;;;;;;;9.95;5.80;;;;;;;19.83;18.19;101695.28;10412626;27;20050;-66
2022/03/13 15:24:13;;;;;;;8.73;5.43;;;;;;;19.08;18.40;101700.38;10375391;27;20550;-67
2022/03/13 15:29:12;;;;;;;8.48;5.55;;;;;;;18.70;19.34;101701.59;10384590;27;20048;-68
2022/03/13 15:34:12;;;;;;;10.68;5.90;;;;;;;18.20;18.97;101699.22;10370598;27;20047;-68
2022/03/13 15:39:11;;;;;;;10.93;5.40;;;;;;;17.73;19.97;101702.38;10383107;28;20052;-68
2022/03/13 15:44:09;;;;;;;11.75;5.30;;;;;;;16.88;20.94;101704.47;10383219;27;20402;-68
2022/03/13 15:49:06;;;;;;;9.90;5.70;;;;;;;16.89;20.60;101697.00;10382983;28;20060;-68
2022/03/13 15:54:04;;;;;;;10.23;5.65;;;;;;;17.61;20.75;101708.69;10376417;28;20039;-69
2022/03/13 15:59:02;;;;;;;10.65;5.88;;;;;;;17.93;19.78;101706.25;10390211;28;20109;-69
2022/03/13 16:03:59;;;;;;;8.98;5.45;;;;;;;18.25;19.84;101716.41;10380513;28;20047;-67
2022/03/13 16:08:55;;;;;;;8.55;5.40;;;;;;;18.36;19.19;101702.13;10406628;27;20174;-68
2022/03/13 16:13:53;;;;;;;9.32;4.95;;;;;;;17.92;19.31;101704.63;10394401;27;20486;-69
2022/03/13 16:18:50;;;;;;;8.65;5.30;;;;;;;18.06;20.17;101705.91;10396182;27;20050;-68
2022/03/13 16:23:47;;;;;;;10.40;5.90;;;;;;;17.14;20.87;101703.44;10389101;28;20048;-68
2022/03/13 16:28:44;;;;;;;9.05;6.00;;;;;;;16.08;21.15;101696.97;10390435;27;20100;-68
2022/03/13 16:33:41;;;;;;;14.55;7.72;;;;;;;15.46;21.73;101702.97;10390654;27;20605;-69
2022/03/13 16:38:40;;;;;;;10.85;6.10;;;;;;;14.93;22.06;101708.50;10405273;27;20578;-69
2022/03/13 16:43:37;;;;;;;15.63;8.18;;;;;;;14.27;23.89;101697.53;10395456;27;20101;-69
2022/03/13 16:48:34;;;;;;;10.60;6.47;;;;;;;14.38;24.64;101709.03;10402333;27;20048;-68
2022/03/13 16:53:31;;;;;;;10.85;5.75;;;;;;;14.04;25.07;101705.03;10399280;28;20124;-68
2022/03/13 16:58:27;;;;;;;11.73;6.65;;;;;;;13.66;24.57;101710.19;10404818;27;20090;-68
2022/03/13 17:03:24;;;;;;;11.20;6.18;;;;;;;13.63;26.33;101717.13;10395551;27;20043;-67
2022/03/13 17:08:21;;;;;;;12.00;5.65;;;;;;;13.38;27.51;101715.00;10408074;27;20043;-68
2022/03/13 17:13:22;;;;;;;12.23;5.90;;;;;;;12.95;27.55;101712.69;10396382;27;20058;-68
2022/03/13 17:18:19;;;;;;;9.73;5.47;;;;;;;12.79;27.67;101721.28;10409055;27;20097;-70
2022/03/13 17:23:17;;;;;;;10.07;5.68;;;;;;;12.59;27.80;101721.72;10386494;28;20051;-68
2022/03/13 17:28:14;;;;;;;10.48;6.28;;;;;;;12.30;30.20;101725.63;10403214;27;20052;-68
2022/03/13 17:33:12;;;;;;;10.13;5.63;;;;;;;12.24;29.91;101726.81;10395400;27;20119;-68
2022/03/13 17:38:17;;;;;;;12.27;6.68;;;;;;;11.88;30.78;101729.41;10417011;27;20043;-67
2022/03/13 17:43:14;;;;;;;11.10;6.75;;;;;;;11.87;30.64;101728.59;10386612;27;20096;-68
2022/03/13 17:48:10;;;;;;;9.77;5.95;;;;;;;11.73;31.47;101744.19;10403677;27;20051;-67
2022/03/13 17:53:08;;;;;;;13.05;6.45;;;;;;;11.56;30.59;101748.28;10410233;27;20047;-68
2022/03/13 17:58:05;;;;;;;10.57;6.22;;;;;;;11.61;31.88;101752.06;10389896;27;20593;-67
2022/03/13 18:03:01;;;;;;;12.57;6.63;;;;;;;11.18;31.59;101746.72;10364984;27;20046;-68
2022/03/13 18:07:58;;;;;;;10.98;6.03;;;;;;;11.21;32.78;101737.88;10386278;27;20048;-69
2022/03/13 18:12:54;;;;;;;10.18;6.00;;;;;;;10.98;31.77;101740.44;10390188;27;20067;-65
2022/03/13 18:17:51;;;;;;;11.55;5.60;;;;;;;11.00;31.94;101742.84;10362131;27;20052;-65
2022/03/13 18:22:47;;;;;;;9.77;5.72;;;;;;;10.85;31.39;101743.88;10364224;27;20229;-65
2022/03/13 18:27:44;;;;;;;14.13;6.65;;;;;;;10.64;32.34;101744.16;10376352;27;20130;-67
2022/03/13 18:32:50;;;;;;;11.40;6.10;;;;;;;10.78;31.96;101735.25;10347525;27;20047;-68
2022/03/13 18:37:47;;;;;;;12.95;6.75;;;;;;;10.46;31.92;101742.19;10360250;27;20127;-67
2022/03/13 18:42:44;;;;;;;9.75;5.40;;;;;;;10.20;31.68;101753.38;10348182;27;20398;-67
2022/03/13 18:47:41;;;;;;;11.30;5.90;;;;;;;10.24;31.38;101754.44;10348233;28;20079;-66
2022/03/13 18:52:37;;;;;;;11.70;5.40;;;;;;;10.25;31.78;101758.78;10357346;27;20039;-67
2022/03/13 18:57:34;;;;;;;11.73;5.75;;;;;;;10.25;32.91;101761.53;10342665;28;20535;-68
2022/03/13 19:02:30;;;;;;;13.88;6.20;;;;;;;10.07;33.92;101765.00;10354845;28;20528;-67
2022/03/13 19:07:27;;;;;;;10.93;5.90;;;;;;;10.00;33.79;101764.53;10377056;28;20039;-68
2022/03/13 19:12:24;;;;;;;11.00;5.20;;;;;;;9.92;33.07;101771.44;10373452;27;20079;-68
2022/03/13 19:17:23;;;;;;;10.80;5.30;;;;;;;9.51;31.59;101771.78;10364961;27;20040;-68
2022/03/13 19:22:20;;;;;;;12.18;5.22;;;;;;;9.48;32.42;101780.53;10372692;27;20502;-68
2022/03/13 19:27:16;;;;;;;12.90;4.68;;;;;;;9.33;33.71;101778.75;10358714;28;20489;-68
2022/03/13 19:32:14;;;;;;;11.75;6.03;;;;;;;9.52;33.74;101780.81;10377666;27;20093;-68
2022/03/13 19:37:12;;;;;;;11.50;5.25;;;;;;;9.38;33.74;101786.91;10383394;27;20067;-68
2022/03/13 19:42:09;;;;;;;10.10;5.35;;;;;;;9.34;34.86;101791.28;10389210;28;20615;-68
2022/03/13 19:47:10;;;;;;;10.38;5.40;;;;;;;8.94;33.27;101784.16;10378317;28;20032;-68
2022/03/13 19:52:08;;;;;;;10.00;5.50;;;;;;;9.14;31.45;101780.50;10391882;27;20788;-67
2022/03/13 19:57:05;;;;;;;14.40;6.05;;;;;;;9.18;33.53;101785.09;10388899;28;20035;-67
2022/03/13 20:02:04;;;;;;;12.35;6.13;;;;;;;9.28;30.55;101797.88;10399058;27;20051;-67
2022/03/13 20:07:02;;;;;;;9.10;5.43;;;;;;;9.19;30.25;101799.56;10388095;28;20042;-67
2022/03/13 20:12:12;;;;;;;10.98;5.70;;;;;;;9.18;31.92;101798.75;10424191;27;20676;-67
2022/03/13 20:17:08;;;;;;;10.88;6.00;;;;;;;9.12;31.44;101807.22;10372407;27;20079;-67
2022/03/13 20:22:05;;;;;;;11.40;6.10;;;;;;;9.00;32.73;101805.66;10406362;27;20072;-67
2022/03/13 20:27:02;;;;;;;11.52;5.93;;;;;;;8.98;31.45;101805.16;10390995;28;20096;-67
2022/03/13 20:31:58;;;;;;;9.75;5.68;;;;;;;8.98;32.29;101810.59;10398095;27;20513;-68
2022/03/13 20:36:56;;;;;;;11.43;5.53;;;;;;;8.72;33.96;101818.06;10393667;28;20126;-67
2022/03/13 20:41:55;;;;;;;11.45;5.70;;;;;;;8.78;33.97;101829.78;10397147;28;20092;-67
2022/03/13 20:46:52;;;;;;;12.27;5.78;;;;;;;8.79;35.09;101828.66;10398255;27;20063;-65
2022/03/13 20:51:51;;;;;;;9.50;5.47;;;;;;;8.67;35.38;101839.06;10418667;27;20052;-67
2022/03/13 20:56:48;;;;;;;11.15;5.82;;;;;;;8.61;33.46;101839.09;10411669;27;20109;-67
2022/03/13 21:01:46;;;;;;;10.30;5.82;;;;;;;8.60;33.49;101848.34;10408396;27;20090;-67
2022/03/13 21:06:48;;;;;;;9.77;5.63;;;;;;;8.52;33.79;101851.66;10383128;27;20035;-65
2022/03/13 21:11:46;;;;;;;15.38;7.13;;;;;;;8.45;33.58;101856.59;10376388;27;20043;-64
2022/03/13 21:16:44;;;;;;;12.80;6.25;;;;;;;8.44;34.64;101854.94;10367900;27;20097;-65
2022/03/13 21:21:45;;;;;;;11.35;5.90;;;;;;;8.32;35.15;101851.66;10385687;27;20047;-65
2022/03/13 21:26:46;;;;;;;10.73;5.45;;;;;;;8.13;36.51;101854.94;10352154;27;20516;-65
2022/03/13 21:31:44;;;;;;;10.00;5.40;;;;;;;7.93;35.80;101871.28;10363652;27;20500;-64
2022/03/13 21:36:42;;;;;;;12.48;5.78;;;;;;;7.92;36.57;101875.13;10351342;27;20486;-66
2022/03/13 21:41:40;;;;;;;9.57;5.43;;;;;;;7.77;36.78;101868.56;10361436;27;20052;-67
2022/03/13 21:46:37;;;;;;;10.27;5.80;;;;;;;7.69;36.93;101871.81;10391789;27;20047;-67
2022/03/13 21:51:34;;;;;;;10.02;5.38;;;;;;;7.57;38.37;101873.97;10384343;27;20048;-68
2022/03/13 21:56:32;;;;;;;10.68;5.72;;;;;;;7.37;38.81;101874.72;10394828;27;20044;-67
2022/03/13 22:01:28;;;;;;;11.98;6.15;;;;;;;7.25;39.13;101871.44;10382623;27;20728;-69
2022/03/13 22:06:26;;;;;;;12.13;6.28;;;;;;;7.17;39.36;101878.19;10389270;28;20035;-68
2022/03/13 22:11:23;;;;;;;12.82;7.20;;;;;;;6.76;39.46;101869.88;10398128;28;20501;-68
2022/03/13 22:16:19;;;;;;;13.48;5.93;;;;;;;6.81;40.19;101869.91;10412533;27;20167;-65
2022/03/13 22:21:16;;;;;;;10.50;5.38;;;;;;;6.74;41.18;101872.84;10430378;27;20047;-65
2022/03/13 22:26:13;;;;;;;12.38;6.32;;;;;;;6.71;40.95;101878.81;10403966;27;20047;-66
2022/03/13 22:31:32;;;;;;;17.35;6.05;;;;;;;6.64;43.46;101861.13;10408368;27;20043;-66
2022/03/13 22:36:28;;;;;;;12.50;5.85;;;;;;;6.52;42.65;101856.69;10396125;28;20069;-67
2022/03/13 22:41:25;;;;;;;12.38;5.78;;;;;;;6.45;44.34;101852.56;10397848;27;20092;-68
2022/03/13 22:46:21;;;;;;;10.57;6.00;;;;;;;6.31;44.25;101863.06;10394173;27;20532;-70
2022/03/13 22:51:21;;;;;;;11.43;6.47;;;;;;;6.32;43.98;101860.09;10418229;27;20745;-70